createdAt,value
2019-03-24T00:00:17.561Z,6.00
2019-03-24T00:02:43.888Z,5.90
2019-03-24T00:05:10.336Z,5.90
2019-03-24T00:07:36.794Z,5.90
2019-03-24T00:10:05.468Z,5.90
2019-03-24T00:12:31.712Z,5.80
2019-03-24T00:14:58.301Z,5.80
2019-03-24T00:17:24.534Z,5.80
2019-03-24T00:19:50.884Z,5.80
2019-03-24T00:22:17.533Z,5.90
2019-03-24T00:24:43.964Z,5.90
2019-03-24T00:27:10.205Z,5.90
2019-03-24T00:29:36.553Z,5.90
2019-03-24T00:32:03.096Z,5.80
2019-03-24T00:34:29.581Z,5.80
2019-03-24T00:36:56.171Z,5.80
2019-03-24T00:39:22.670Z,5.80
2019-03-24T00:41:49.068Z,5.70
2019-03-24T00:44:15.309Z,5.60
2019-03-24T00:46:41.802Z,5.90
2019-03-24T00:49:08.306Z,5.70
2019-03-24T00:51:34.645Z,5.60
2019-03-24T00:54:01.033Z,5.70
2019-03-24T00:56:27.485Z,5.70
2019-03-24T00:58:54.072Z,5.60
2019-03-24T01:01:23.697Z,5.60
2019-03-24T01:03:50.008Z,5.50
2019-03-24T01:06:16.373Z,5.50
2019-03-24T01:08:44.768Z,5.60
2019-03-24T01:11:11.012Z,5.50
2019-03-24T01:13:37.688Z,5.40
2019-03-24T01:16:04.224Z,5.40
2019-03-24T01:18:34.789Z,5.50
2019-03-24T01:21:01.285Z,5.50
2019-03-24T01:23:29.676Z,5.50
2019-03-24T01:25:56.121Z,5.60
2019-03-24T01:28:22.577Z,5.60
2019-03-24T01:30:49.162Z,5.50
2019-03-24T01:33:15.781Z,5.40
2019-03-24T01:35:42.008Z,5.30
2019-03-24T01:38:08.380Z,5.40
2019-03-24T01:40:34.919Z,5.50
2019-03-24T01:43:01.372Z,5.40
2019-03-24T01:45:27.724Z,5.40
2019-03-24T01:47:54.164Z,5.30
2019-03-24T01:50:20.412Z,5.20
2019-03-24T01:52:46.656Z,5.20
2019-03-24T01:55:13.096Z,5.30
2019-03-24T01:57:39.340Z,5.20
2019-03-24T02:00:06.908Z,5.20
2019-03-24T02:02:33.472Z,5.20
2019-03-24T02:04:59.822Z,5.10
2019-03-24T02:07:26.092Z,5.30
2019-03-24T02:09:52.421Z,5.10
2019-03-24T02:12:18.872Z,5.10
2019-03-24T02:14:45.218Z,5.10
2019-03-24T02:17:11.672Z,5.30
2019-03-24T02:19:37.996Z,5.40
2019-03-24T02:22:04.452Z,5.20
2019-03-24T02:24:30.708Z,5.10
2019-03-24T02:26:57.152Z,5.10
2019-03-24T02:29:23.400Z,5.30
2019-03-24T02:31:49.738Z,5.00
2019-03-24T02:34:16.299Z,5.00
2019-03-24T02:36:43.151Z,5.00
2019-03-24T02:39:09.385Z,5.10
2019-03-24T02:41:35.734Z,4.90
2019-03-24T02:44:02.105Z,4.60
2019-03-24T02:46:28.449Z,4.90
2019-03-24T02:48:54.802Z,4.90
2019-03-24T02:51:21.137Z,4.90
2019-03-24T02:53:47.482Z,4.90
2019-03-24T02:56:13.830Z,4.80
2019-03-24T02:58:40.077Z,4.80
2019-03-24T03:01:06.516Z,4.80
2019-03-24T03:03:32.752Z,4.70
2019-03-24T03:05:59.225Z,4.70
2019-03-24T03:08:25.469Z,4.70
2019-03-24T03:55:37.103Z,4.40
2019-03-24T03:58:16.317Z,4.40
2019-03-24T04:00:54.617Z,4.50
2019-03-24T04:03:40.821Z,4.50
2019-03-24T04:06:20.707Z,4.40
2019-03-24T04:09:00.716Z,4.40
2019-03-24T04:11:40.724Z,4.40
2019-03-24T04:14:18.030Z,4.40
2019-03-24T04:17:06.967Z,4.40
2019-03-24T04:19:37.253Z,4.40
2019-03-24T04:22:16.971Z,4.40
2019-03-24T04:24:56.941Z,4.40
2019-03-24T04:27:36.261Z,4.30
2019-03-24T04:30:16.235Z,4.30
2019-03-24T04:32:55.539Z,4.10
2019-03-24T04:35:35.366Z,4.20
2019-03-24T04:38:15.324Z,4.20
2019-03-24T04:40:55.234Z,4.10
2019-03-24T04:43:34.500Z,4.10
2019-03-24T04:46:13.605Z,4.10
2019-03-24T04:48:53.713Z,4.00
2019-03-24T04:51:20.055Z,4.00
2019-03-24T04:54:06.266Z,4.00
2019-03-24T04:56:52.357Z,4.00
2019-03-24T04:59:31.814Z,3.90
2019-03-24T05:02:10.930Z,4.00
2019-03-24T05:04:50.408Z,3.90
2019-03-24T05:07:29.821Z,4.10
2019-03-24T05:10:09.778Z,4.00
2019-03-24T05:12:48.997Z,4.10
2019-03-24T05:15:27.225Z,4.30
2019-03-24T05:18:13.429Z,4.30
2019-03-24T05:20:53.293Z,4.50
2019-03-24T05:23:33.286Z,4.40
2019-03-24T05:26:12.500Z,4.50
2019-03-24T05:28:51.609Z,4.70
2019-03-24T05:31:30.852Z,4.60
2019-03-24T05:34:10.849Z,5.00
2019-03-24T05:36:50.999Z,4.90
2019-03-24T05:39:30.958Z,4.80
2019-03-24T05:42:11.032Z,5.10
2019-03-24T05:44:50.214Z,6.40
2019-03-24T05:47:37.006Z,9.00
2019-03-24T05:50:09.645Z,10.40
2019-03-24T05:52:49.445Z,11.90
2019-03-24T05:55:29.435Z,12.50
2019-03-24T05:58:09.510Z,12.70
2019-03-24T06:00:49.354Z,13.50
2019-03-24T06:03:29.405Z,13.90
2019-03-24T06:06:09.542Z,13.70
2019-03-24T06:08:49.228Z,14.00
2019-03-24T06:11:29.173Z,14.00
2019-03-24T06:14:09.243Z,14.00
2019-03-24T06:20:01.474Z,14.80
2019-03-24T06:22:41.423Z,15.00
2019-03-24T06:25:21.462Z,14.90
2019-03-24T06:28:00.671Z,15.30
2019-03-24T06:30:39.861Z,15.40
2019-03-24T06:33:19.707Z,15.50
2019-03-24T06:41:55.986Z,15.50
2019-03-24T06:44:35.163Z,15.60
2019-03-24T06:47:12.485Z,15.10
2019-03-24T06:49:58.646Z,14.80
2019-03-24T06:52:38.383Z,14.60
2019-03-24T06:55:18.605Z,14.50
2019-03-24T06:57:56.057Z,14.60
2019-03-24T07:00:42.269Z,14.60
2019-03-24T07:03:21.785Z,15.20
2019-03-24T07:05:59.038Z,15.00
2019-03-24T07:08:38.925Z,14.90
2019-03-24T07:11:18.132Z,14.00
2019-03-24T07:13:57.369Z,13.10
2019-03-24T07:16:37.365Z,12.00
2019-03-24T07:19:16.450Z,11.00
2019-03-24T07:21:55.727Z,10.20
2019-03-24T07:24:36.001Z,9.90
2019-03-24T07:27:15.509Z,9.30
2019-03-24T07:29:55.483Z,9.10
2019-03-24T07:32:32.785Z,8.70
2019-03-24T07:35:12.553Z,8.70
2019-03-24T07:37:52.601Z,8.60
2019-03-24T07:40:32.113Z,8.50
2019-03-24T07:43:11.986Z,8.40
2019-03-24T07:45:51.978Z,8.30
2019-03-24T07:48:31.300Z,8.20
2019-03-24T07:51:11.130Z,8.10
2019-03-24T07:53:51.018Z,8.10
2019-03-24T07:56:31.179Z,8.00
2019-03-24T07:59:11.255Z,8.00
2019-03-24T08:01:50.493Z,8.00
2019-03-24T08:04:30.567Z,8.00
2019-03-24T08:07:10.457Z,7.90
2019-03-24T08:09:50.757Z,7.80
2019-03-24T08:12:30.712Z,7.90
2019-03-24T08:15:09.849Z,7.70
2019-03-24T08:17:49.281Z,7.80
2019-03-24T08:20:29.151Z,7.70
2019-03-24T08:23:09.209Z,7.80
2019-03-24T08:25:49.258Z,7.70
2019-03-24T08:28:29.446Z,7.70
2019-03-24T08:31:09.093Z,7.30
2019-03-24T08:36:47.244Z,7.70
2019-03-24T08:39:24.633Z,7.80
2019-03-24T08:42:04.355Z,7.80
2019-03-24T08:44:43.517Z,7.90
2019-03-24T08:47:23.534Z,7.70
2019-03-24T08:50:03.464Z,8.10
2019-03-24T08:52:43.466Z,7.90
2019-03-24T08:55:22.551Z,8.10
2019-03-24T08:58:01.675Z,8.10
2019-03-24T09:00:41.546Z,8.20
2019-03-24T09:03:21.567Z,8.10
2019-03-24T09:06:00.691Z,8.20
2019-03-24T09:08:40.694Z,8.20
2019-03-24T09:11:30.625Z,8.20
2019-03-24T09:14:01.820Z,8.10
2019-03-24T09:16:41.690Z,8.40
2019-03-24T09:19:20.874Z,8.20
2019-03-24T09:22:00.918Z,8.10
2019-03-24T09:24:40.941Z,8.20
2019-03-24T09:27:20.101Z,8.30
2019-03-24T09:30:00.360Z,8.50
2019-03-24T09:32:40.090Z,8.60
2019-03-24T09:35:20.137Z,8.50
2019-03-24T09:37:59.941Z,8.50
2019-03-24T09:46:39.599Z,8.70
2019-03-24T09:49:19.411Z,8.80
2019-03-24T09:51:58.518Z,8.80
2019-03-24T09:54:38.523Z,8.90
2019-03-24T09:57:18.445Z,9.00
2019-03-24T09:59:57.689Z,9.00
2019-03-24T10:02:37.037Z,9.30
2019-03-24T10:05:16.874Z,9.20
2019-03-24T10:07:56.759Z,9.20
2019-03-24T10:10:36.841Z,9.40
2019-03-24T10:16:15.207Z,9.40
2019-03-24T10:18:55.211Z,9.40
2019-03-24T10:21:35.291Z,9.80
2019-03-24T10:24:12.714Z,10.00
2019-03-24T10:26:52.277Z,10.40
2019-03-24T10:29:32.385Z,10.40
2019-03-24T10:32:12.419Z,10.20
2019-03-24T10:34:51.631Z,10.40
2019-03-24T10:37:31.707Z,10.50
2019-03-24T10:40:10.909Z,10.70
2019-03-24T10:42:50.928Z,10.80
2019-03-24T10:45:30.905Z,11.00
2019-03-24T10:48:10.040Z,11.20
2019-03-24T10:50:50.405Z,11.20
2019-03-24T10:53:30.127Z,11.40
2019-03-24T10:56:09.291Z,11.70
2019-03-24T10:58:49.280Z,12.00
2019-03-24T11:01:29.123Z,12.10
2019-03-24T11:04:09.271Z,12.10
2019-03-24T11:06:49.557Z,12.30
2019-03-24T11:09:29.580Z,12.40
2019-03-24T11:12:07.481Z,12.80
2019-03-24T11:14:46.623Z,12.90
2019-03-24T11:17:26.087Z,12.70
2019-03-24T11:20:06.017Z,12.90
2019-03-24T11:22:45.985Z,13.10
2019-03-24T11:25:25.965Z,12.80
2019-03-24T11:28:06.087Z,12.70
2019-03-24T11:30:46.074Z,12.60
2019-03-24T11:33:25.255Z,12.70
2019-03-24T11:36:02.683Z,12.60
2019-03-24T11:38:48.890Z,12.70
2019-03-24T11:41:28.569Z,13.10
2019-03-24T11:44:05.929Z,13.40
2019-03-24T11:46:45.740Z,13.50
2019-03-24T11:49:24.780Z,13.50
2019-03-24T11:52:02.108Z,13.60
2019-03-24T11:54:48.213Z,13.40
2019-03-24T11:57:28.141Z,13.20
2019-03-24T12:00:08.158Z,13.20
2019-03-24T12:02:48.193Z,13.00
2019-03-24T12:05:28.212Z,12.80
2019-03-24T12:08:07.264Z,12.80
2019-03-24T12:10:47.353Z,12.80
2019-03-24T12:13:24.717Z,12.70
2019-03-24T12:16:10.827Z,12.50
2019-03-24T12:18:50.578Z,12.50
2019-03-24T12:21:27.694Z,12.50
2019-03-24T12:24:06.968Z,12.50
2019-03-24T12:26:46.867Z,12.50
2019-03-24T12:29:26.937Z,12.40
2019-03-24T12:32:06.068Z,12.50
2019-03-24T12:34:46.117Z,12.40
2019-03-24T12:37:26.058Z,12.30
2019-03-24T12:40:06.297Z,12.10
2019-03-24T12:42:45.414Z,12.00
2019-03-24T12:45:24.596Z,11.90
2019-03-24T12:48:03.797Z,11.60
2019-03-24T12:50:43.821Z,11.60
2019-03-24T12:53:23.809Z,11.40
2019-03-24T12:56:03.270Z,11.50
2019-03-24T12:58:42.977Z,11.60
2019-03-24T13:01:23.002Z,11.80
2019-03-24T13:04:02.274Z,11.80
2019-03-24T13:06:42.422Z,11.80
2019-03-24T13:09:20.013Z,11.90
2019-03-24T13:11:59.621Z,11.80
2019-03-24T13:14:38.833Z,11.90
2019-03-24T13:17:18.059Z,12.10
2019-03-24T13:19:57.895Z,12.10
2019-03-24T13:22:37.969Z,11.80
2019-03-24T13:25:17.930Z,11.80
2019-03-24T13:27:57.268Z,11.50
2019-03-24T13:30:37.130Z,11.40
2019-03-24T13:33:18.145Z,11.50
2019-03-24T13:39:05.137Z,11.60
2019-03-24T13:41:46.189Z,11.80
2019-03-24T13:44:26.462Z,11.60
2019-03-24T13:47:06.478Z,11.80
2019-03-24T13:49:46.578Z,11.70
2019-03-24T13:52:26.666Z,11.80
2019-03-24T13:55:06.675Z,11.70
2019-03-24T13:57:46.487Z,11.60
2019-03-24T14:00:25.921Z,11.50
2019-03-24T14:03:05.834Z,11.40
2019-03-24T14:05:45.667Z,11.30
2019-03-24T14:08:24.870Z,11.20
2019-03-24T14:11:04.845Z,11.20
2019-03-24T14:13:44.944Z,11.30
2019-03-24T14:16:24.213Z,11.30
2019-03-24T14:19:04.105Z,11.20
2019-03-24T14:21:44.365Z,11.20
2019-03-24T14:24:24.139Z,11.20
2019-03-24T14:27:03.357Z,11.30
2019-03-24T14:29:42.483Z,11.00
2019-03-24T14:32:21.865Z,11.10
2019-03-24T14:35:01.774Z,11.10
2019-03-24T14:37:39.265Z,10.80
2019-03-24T14:40:25.366Z,10.60
2019-03-24T14:43:04.622Z,10.70
2019-03-24T14:45:44.529Z,10.70
2019-03-24T14:48:24.609Z,10.70
2019-03-24T14:51:04.404Z,10.70
2019-03-24T14:53:44.465Z,10.60
2019-03-24T14:56:24.517Z,10.80
2019-03-24T14:59:04.489Z,10.70
2019-03-24T15:01:44.593Z,10.70
2019-03-24T15:04:23.945Z,10.60
2019-03-24T15:07:03.805Z,10.80
2019-03-24T15:09:40.979Z,10.70
2019-03-24T15:12:27.185Z,10.80
2019-03-24T15:15:07.458Z,10.70
2019-03-24T15:21:05.477Z,10.50
2019-03-24T15:23:41.258Z,10.40
2019-03-24T15:26:21.086Z,10.40
2019-03-24T15:29:00.949Z,10.50
2019-03-24T15:31:41.074Z,10.40
2019-03-24T15:34:20.202Z,10.40
2019-03-24T15:36:59.437Z,10.30
2019-03-24T15:39:39.286Z,10.30
2019-03-24T15:42:19.238Z,10.20
2019-03-24T15:44:59.208Z,10.10
2019-03-24T15:47:39.226Z,10.00
2019-03-24T15:50:19.285Z,9.90
2019-03-24T15:52:59.257Z,9.90
2019-03-24T15:55:39.213Z,9.80
2019-03-24T15:58:18.521Z,9.90
2019-03-24T16:00:58.505Z,9.80
2019-03-24T16:03:37.590Z,9.80
2019-03-24T16:06:16.736Z,9.90
2019-03-24T16:08:54.952Z,9.80
2019-03-24T16:11:41.153Z,9.80
2019-03-24T16:14:20.288Z,9.90
2019-03-24T16:17:00.378Z,9.80
2019-03-24T16:19:40.309Z,9.60
2019-03-24T16:22:20.378Z,9.60
2019-03-24T16:25:00.519Z,9.50
2019-03-24T16:30:19.819Z,9.40
2019-03-24T16:32:59.789Z,9.20
2019-03-24T16:35:39.862Z,9.10
2019-03-24T16:38:17.142Z,9.20
2019-03-24T16:40:57.039Z,9.10
2019-03-24T16:43:37.033Z,9.00
2019-03-24T16:46:16.899Z,8.90
2019-03-24T16:48:56.769Z,8.90
2019-03-24T16:51:38.758Z,8.90
2019-03-24T16:54:17.863Z,8.90
2019-03-24T16:56:57.817Z,8.60
2019-03-24T16:59:35.105Z,8.80
2019-03-24T17:02:14.941Z,8.80
2019-03-24T17:04:53.961Z,8.60
2019-03-24T17:07:20.417Z,8.60
2019-03-24T17:09:59.957Z,8.70
2019-03-24T17:12:39.821Z,8.50
2019-03-24T17:15:19.806Z,8.70
2019-03-24T17:17:59.875Z,8.50
2019-03-24T17:20:39.754Z,8.40
2019-03-24T17:23:19.820Z,8.50
2019-03-24T17:25:59.140Z,8.50
2019-03-24T17:28:38.944Z,8.40
2019-03-24T17:31:18.042Z,8.40
2019-03-24T17:33:58.041Z,8.40
2019-03-24T17:36:37.945Z,8.30
2019-03-24T17:39:17.190Z,8.40
2019-03-24T17:41:57.110Z,8.10
2019-03-24T17:44:37.183Z,8.40
2019-03-24T17:47:16.326Z,8.30
2019-03-24T17:49:56.345Z,8.30
2019-03-24T17:52:36.261Z,8.30
2019-03-24T17:55:26.866Z,8.20
2019-03-24T17:57:57.457Z,8.20
2019-03-24T18:00:39.191Z,8.10
2019-03-24T18:03:18.322Z,8.10
2019-03-24T18:05:59.642Z,8.20
2019-03-24T18:08:45.837Z,7.90
2019-03-24T18:11:25.645Z,8.00
2019-03-24T18:14:05.685Z,8.00
2019-03-24T18:16:44.929Z,7.90
2019-03-24T18:22:37.225Z,7.90
2019-03-24T18:25:17.245Z,7.90
2019-03-24T18:27:56.711Z,7.80
2019-03-24T18:30:34.601Z,7.80
2019-03-24T18:33:14.545Z,7.90
2019-03-24T18:35:54.521Z,7.70
2019-03-24T18:38:34.674Z,7.80
2019-03-24T18:41:14.629Z,7.90
2019-03-24T18:43:54.860Z,7.80
2019-03-24T18:46:34.844Z,7.80
2019-03-24T18:49:14.215Z,7.80
2019-03-24T18:51:53.361Z,7.70
2019-03-24T18:54:33.311Z,7.70
2019-03-24T18:57:10.679Z,7.70
2019-03-24T18:59:50.704Z,7.60
2019-03-24T19:02:29.798Z,7.40
2019-03-24T19:05:09.041Z,7.60
2019-03-24T19:07:46.389Z,7.60
2019-03-24T19:10:26.288Z,7.40
2019-03-24T19:13:06.137Z,7.50
2019-03-24T19:15:45.205Z,7.40
2019-03-24T19:18:22.515Z,7.40
2019-03-24T19:21:02.201Z,7.60
2019-03-24T19:23:42.265Z,7.60
2019-03-24T19:26:21.522Z,7.50
2019-03-24T19:29:01.733Z,7.50
2019-03-24T19:31:41.678Z,7.30
2019-03-24T19:34:20.797Z,7.00
2019-03-24T19:37:00.005Z,7.30
2019-03-24T19:39:39.263Z,7.30
2019-03-24T19:42:19.163Z,7.00
2019-03-24T19:44:59.150Z,7.20
2019-03-24T19:47:38.254Z,7.20
2019-03-24T19:50:18.286Z,7.00
2019-03-24T19:52:58.245Z,7.10
2019-03-24T19:55:38.143Z,7.20
2019-03-24T19:58:18.186Z,7.20
2019-03-24T20:00:58.109Z,7.10
2019-03-24T20:03:38.038Z,7.10
2019-03-24T20:06:17.227Z,7.00
2019-03-24T20:08:59.737Z,7.10
2019-03-24T20:11:39.447Z,6.60
2019-03-24T20:14:19.545Z,6.50
2019-03-24T20:16:59.546Z,6.80
2019-03-24T20:19:38.868Z,6.70
2019-03-24T20:22:18.730Z,7.00
2019-03-24T20:24:58.667Z,6.90
2019-03-24T20:27:38.735Z,6.70
2019-03-24T20:30:17.950Z,6.60
2019-03-24T20:32:57.918Z,6.70
2019-03-24T20:35:37.713Z,6.90
2019-03-24T20:38:17.718Z,6.80
2019-03-24T20:40:57.918Z,6.60
2019-03-24T20:43:38.034Z,6.70
2019-03-24T20:46:17.322Z,6.20
2019-03-24T20:48:57.099Z,6.50
2019-03-24T20:51:36.282Z,6.60
2019-03-24T20:54:02.772Z,6.60
2019-03-24T20:56:48.779Z,6.50
2019-03-24T20:59:34.886Z,6.40
2019-03-24T21:02:13.999Z,6.40
2019-03-24T21:04:51.325Z,6.50
2019-03-24T21:07:31.149Z,6.50
2019-03-24T21:10:11.077Z,6.20
2019-03-24T21:12:51.101Z,6.50
2019-03-24T21:15:30.981Z,6.60
2019-03-24T21:18:08.319Z,6.50
2019-03-24T21:20:54.429Z,6.30
2019-03-24T21:23:34.214Z,6.20
2019-03-24T21:26:14.255Z,5.80
2019-03-24T21:28:54.251Z,6.20
2019-03-24T21:31:31.672Z,6.20
2019-03-24T21:34:11.365Z,6.10
2019-03-24T21:36:48.683Z,6.20
2019-03-24T21:39:28.531Z,6.30
2019-03-24T21:42:08.517Z,6.20
2019-03-24T21:44:48.432Z,6.10
2019-03-24T21:47:28.613Z,6.10
2019-03-24T21:50:08.256Z,6.20
2019-03-24T21:52:48.160Z,6.30
2019-03-24T21:55:27.505Z,5.80
2019-03-24T21:58:04.874Z,6.20
2019-03-24T22:00:44.553Z,6.10
2019-03-24T22:03:23.958Z,6.10
2019-03-24T22:06:03.711Z,6.10
2019-03-24T22:08:40.948Z,6.00
2019-03-24T22:11:20.630Z,6.10
2019-03-24T22:14:00.601Z,6.20
2019-03-24T22:16:40.411Z,6.00
2019-03-24T22:19:20.586Z,5.80
2019-03-24T22:24:58.567Z,6.00
2019-03-24T22:27:38.473Z,5.80
2019-03-24T22:30:18.381Z,6.00
2019-03-24T22:32:58.199Z,5.80
2019-03-24T22:35:38.145Z,5.70
2019-03-24T22:38:17.314Z,5.70
2019-03-24T22:40:56.482Z,5.80
2019-03-24T22:43:35.669Z,5.80
2019-03-24T22:46:15.783Z,5.90
2019-03-24T22:48:53.074Z,5.80
2019-03-24T22:51:32.851Z,5.70
2019-03-24T22:54:12.809Z,5.50
2019-03-24T22:56:52.837Z,5.20
2019-03-24T22:59:32.839Z,5.20
2019-03-24T23:02:11.948Z,5.30
2019-03-24T23:04:51.101Z,5.30
2019-03-24T23:07:31.157Z,5.40
2019-03-24T23:10:11.337Z,5.30
2019-03-24T23:12:51.097Z,5.30
2019-03-24T23:15:30.927Z,5.20
2019-03-24T23:18:10.168Z,5.20
2019-03-24T23:20:49.345Z,4.70
2019-03-24T23:23:28.596Z,5.20
2019-03-24T23:29:20.857Z,5.00
2019-03-24T23:31:58.151Z,4.90
2019-03-24T23:34:38.137Z,4.90
2019-03-24T23:37:04.469Z,4.70
2019-03-24T23:39:50.713Z,4.70
2019-03-24T23:42:36.906Z,4.60
2019-03-24T23:45:16.845Z,4.50
2019-03-24T23:47:56.873Z,4.60
2019-03-24T23:50:36.866Z,4.60
2019-03-24T23:53:16.942Z,4.70
2019-03-24T23:55:54.341Z,4.50
2019-03-24T23:58:41.357Z,4.60
